Latest Weather Observations for Holmes Reef

IDQ60801

Issued at 5:02 am EST Wednesday 18 January 2017 (issued every 30 minutes, with the page automatically refreshed every 10 minutes)

About weather observations | Map of weather stations | Latest weather observations for QLD | Other Formats
Station Details ID: 200732 Name: HOLMES REEF Lat: -16.47 Lon: 147.87 Height: 1.9 m
Data from the previous 72 hours. | See also: Recent months at Holmes Reef
Date/Time
EST
Temp
°C
App
Temp
°C
Dew
Point
°C
Rel
Hum
%
Delta-T
°C
Wind Press
QNH
hPa
Press
MSL
hPa
Rain since
9am
mm
Dir  Spd
km/h
Gust
km/h
Spd
kts
Gust
kts
18/05:00am 28.5 - - - - E 13 15 7 8 1010.8 - -
18/04:30am 28.4 - - - - ESE 15 19 8 10 1010.5 - -
18/04:15am 28.5 - - - - ESE 15 - 8 - - 1010.0 -
18/04:00am 28.3 - - - - ESE 11 17 6 9 1010.3 - -
18/03:30am 27.3 - - - - E 11 22 6 12 1010.5 - -
18/03:15am 26.4 - - - - E 33 - 18 - - 1010.2 -
18/03:00am 28.5 - - - - ESE 20 22 11 12 1010.4 - -
18/02:30am 28.5 - - - - ESE 20 24 11 13 1010.4 - -
18/02:15am 28.5 - - - - ESE 24 - 13 - - 1010.2 -
18/02:00am 28.5 - - - - ESE 22 26 12 14 1010.6 - -
18/01:30am 28.6 - - - - ESE 22 26 12 14 1010.8 - -
18/01:15am 28.5 - - - - ESE 20 - 11 - - 1010.7 -
18/01:00am 28.5 - - - - E 22 26 12 14 1011.3 - -
18/12:30am 28.6 - - - - ESE 24 28 13 15 1011.4 - -
18/12:15am 28.5 - - - - ESE 24 - 13 - - 1011.2 -
18/12:00am 28.5 - - - - ESE 24 28 13 15 1011.7 - -
 
Date/Time
EST
Temp
°C
App
Temp
°C
Dew
Point
°C
Rel
Hum
%
Delta-T
°C
Wind Press
QNH
hPa
Press
MSL
hPa
Rain since
9am
mm
Dir  Spd
km/h
Gust
km/h
Spd
kts
Gust
kts
17/11:30pm 28.6 - - - - ESE 22 26 12 14 1012.3 - -
17/11:15pm 28.7 - - - - ESE 22 - 12 - - 1012.1 -
17/11:00pm 28.6 - - - - ESE 22 24 12 13 1012.6 - -
17/10:30pm 28.7 - - - - ESE 22 28 12 15 1012.9 - -
17/10:15pm 28.7 - - - - ESE 24 - 13 - - 1012.5 -
17/10:00pm 28.8 - - - - ESE 24 28 13 15 1012.7 - -
17/09:30pm 28.8 - - - - ESE 24 30 13 16 1012.5 - -
17/09:15pm 28.7 - - - - ESE 26 - 14 - - 1012.1 -
17/09:00pm 28.7 - - - - ESE 28 32 15 17 1012.2 - -
17/08:30pm 28.5 - - - - ESE 28 33 15 18 1011.8 - -
17/08:15pm 28.7 - - - - ESE 28 - 15 - - 1011.4 -
17/08:00pm 28.8 - - - - ESE 26 30 14 16 1011.5 - -
17/07:30pm 28.8 - - - - ESE 28 32 15 17 1011.1 - -
17/07:15pm 28.8 - - - - SE 28 - 15 - - 1010.5 -
17/07:00pm 28.7 - - - - SE 26 32 14 17 1010.8 - -
17/06:30pm 28.7 - - - - SE 26 30 14 16 1010.5 - -
17/06:15pm 28.6 - - - - SE 24 - 13 - - 1010.2 -
17/06:00pm 28.7 - - - - SE 26 30 14 16 1010.4 - -
17/05:30pm 28.8 - - - - ESE 22 26 12 14 1010.4 - -
17/05:15pm 28.7 - - - - SE 24 - 13 - - 1009.8 -
17/05:00pm 28.7 - - - - SE 24 26 13 14 1010.2 - -
17/04:30pm 28.7 - - - - ESE 24 28 13 15 1010.1 - -
17/04:15pm 28.6 - - - - ESE 24 - 13 - - 1009.6 -
17/04:00pm 28.6 - - - - SE 22 26 12 14 1009.9 - -
17/03:30pm 28.7 - - - - SE 17 19 9 10 1010.3 - -
17/03:15pm 28.7 - - - - SE 17 - 9 - - 1010.1 -
17/03:00pm 28.5 - - - - SE 17 20 9 11 1010.4 - -
17/02:30pm 28.3 - - - - SE 19 22 10 12 1010.6 - -
17/02:15pm 28.3 - - - - SE 17 - 9 - - 1010.4 -
17/02:00pm 28.3 - - - - SE 19 20 10 11 1010.8 - -
17/01:30pm 27.9 - - - - ESE 17 19 9 10 1011.4 - -
17/01:15pm 27.8 - - - - SE 17 - 9 - - 1011.4 -
17/01:00pm 27.8 - - - - SE 13 17 7 9 1012.0 - -
17/12:30pm 27.5 - - - - ESE 17 20 9 11 1012.4 - -
17/12:15pm 27.5 - - - - ESE 15 - 8 - - 1012.2 -
17/12:00pm 27.8 - - - - ESE 13 19 7 10 1012.7 - -
17/11:30am 28.5 - - - - ESE 7 11 4 6 1013.0 - -
17/11:15am 28.7 - - - - ESE 9 - 5 - - 1012.7 -
17/11:00am 29.0 - - - - ESE 9 11 5 6 1013.1 - -
17/10:30am 30.0 - - - - SSE 2 7 1 4 1013.1 - -
17/10:15am 29.5 - - - - SSE 9 - 5 - - 1012.9 -
17/10:00am 28.9 - - - - SSE 13 19 7 10 1013.2 - -
17/09:30am 29.4 - - - - CALM 0 0 0 0 1013.3 - -
17/09:15am 28.8 - - - - CALM 0 - 0 - - 1012.9 -
17/09:00am 28.5 - - - - CALM 0 0 0 0 1012.9 - -
17/08:30am 28.6 - - - - NE 7 9 4 5 1012.5 - -
17/08:15am 28.9 - - - - ENE 9 - 5 - - 1012.0 -
17/08:00am 28.8 - - - - ENE 7 9 4 5 1012.2 - -
17/07:30am 28.2 - - - - E 7 11 4 6 1012.0 - -
17/07:15am 27.8 - - - - E 11 - 6 - - 1011.7 -
17/07:00am 27.8 - - - - E 13 15 7 8 1012.1 - -
17/06:30am 27.9 - - - - E 11 15 6 8 1011.7 - -
17/06:15am 27.5 - - - - E 6 - 3 - - 1011.2 -
17/06:00am 27.0 - - - - NNE 11 13 6 7 1011.4 - -
17/05:30am 26.6 - - - - NNE 22 28 12 15 1010.8 - -
17/05:15am 25.2 - - - - NE 32 - 17 - - 1010.3 -
17/05:00am 26.7 - - - - ENE 24 37 13 20 1010.6 - -
17/04:30am 26.9 - - - - CALM 0 0 0 0 1009.9 - -
17/04:15am 26.8 - - - - CALM 0 - 0 - - 1009.8 -
17/04:00am 26.9 - - - - CALM 0 0 0 0 1010.0 - -
17/03:30am 26.7 - - - - CALM 0 0 0 0 1009.8 - -
17/03:15am 26.8 - - - - NNW 9 - 5 - - 1009.4 -
17/03:00am 26.8 - - - - NNW 9 13 5 7 1009.7 - -
17/02:30am 26.7 - - - - N 15 20 8 11 1010.2 - -
17/02:15am 26.6 - - - - N 15 - 8 - - 1009.9 -
17/02:00am 26.5 - - - - N 13 17 7 9 1010.4 - -
17/01:39am 27.3 - - - - NE 32 39 17 21 1010.2 - -
17/01:30am 28.3 - - - - NE 13 15 7 8 1010.1 - -
17/01:15am 28.3 - - - - NE 17 - 9 - - 1009.9 -
17/01:00am 28.1 - - - - NE 19 22 10 12 1010.5 - -
17/12:30am 28.6 - - - - E 17 20 9 11 1010.6 - -
17/12:15am 28.6 - - - - E 19 - 10 - - 1010.5 -
17/12:00am 28.6 - - - - E 22 26 12 14 1011.0 - -
 
Date/Time
EST
Temp
°C
App
Temp
°C
Dew
Point
°C
Rel
Hum
%
Delta-T
°C
Wind Press
QNH
hPa
Press
MSL
hPa
Rain since
9am
mm
Dir  Spd
km/h
Gust
km/h
Spd
kts
Gust
kts
16/11:30pm 28.7 - - - - E 20 24 11 13 1011.4 - -
16/11:15pm 28.8 - - - - ENE 22 - 12 - - 1011.2 -
16/11:00pm 28.7 - - - - E 20 24 11 13 1011.5 - -
16/10:30pm 28.6 - - - - E 20 24 11 13 1011.4 - -
16/10:15pm 28.7 - - - - E 24 - 13 - - 1011.0 -
16/10:00pm 28.7 - - - - ENE 24 28 13 15 1011.2 - -
16/09:30pm 28.7 - - - - ENE 24 26 13 14 1010.9 - -
16/09:15pm 28.6 - - - - ENE 20 - 11 - - 1010.6 -
16/09:00pm 28.6 - - - - ENE 20 24 11 13 1010.8 - -
16/08:30pm 28.6 - - - - ENE 19 22 10 12 1010.7 - -
16/08:15pm 28.5 - - - - ENE 19 - 10 - - 1010.4 -
16/08:00pm 28.6 - - - - E 19 22 10 12 1010.6 - -
16/07:30pm 28.5 - - - - ENE 17 20 9 11 1010.5 - -
16/07:15pm 28.4 - - - - ENE 17 - 9 - - 1010.0 -
16/07:00pm 28.3 - - - - E 20 22 11 12 1010.2 - -
16/06:30pm 28.4 - - - - E 20 22 11 12 1009.7 - -
16/06:15pm 28.4 - - - - E 22 - 12 - - 1008.9 -
16/06:00pm 28.3 - - - - E 22 24 12 13 1009.0 - -
16/05:30pm 28.4 - - - - E 26 30 14 16 1008.7 - -
16/05:15pm 28.9 - - - - ENE 24 - 13 - - 1008.3 -
16/05:00pm 28.9 - - - - ENE 22 26 12 14 1008.3 - -
16/04:30pm 28.8 - - - - ENE 26 28 14 15 1008.0 - -
16/04:15pm 28.7 - - - - E 22 - 12 - - 1007.7 -
16/04:00pm 28.6 - - - - E 28 30 15 16 1007.9 - -
16/03:30pm 28.8 - - - - ENE 20 30 11 16 1008.1 - -
16/03:15pm 29.1 - - - - ENE 20 - 11 - - 1007.9 -
16/03:00pm 29.2 - - - - NE 20 22 11 12 1008.5 - -
16/02:30pm 29.2 - - - - NE 19 20 10 11 1008.8 - -
16/02:15pm 29.3 - - - - NE 19 - 10 - - 1008.5 -
16/02:00pm 29.1 - - - - NE 19 20 10 11 1008.8 - -
16/01:30pm 28.9 - - - - ENE 22 28 12 15 1008.7 - -
16/01:15pm 28.6 - - - - ENE 24 - 13 - - 1008.3 -
16/01:00pm 28.5 - - - - ENE 24 30 13 16 1008.7 - -
16/12:30pm 28.3 - - - - E 20 24 11 13 1008.6 - -
16/12:15pm 28.3 - - - - ENE 17 - 9 - - 1008.2 -
16/12:00pm 28.2 - - - - ENE 17 20 9 11 1008.6 - -
16/11:30am 28.1 - - - - ENE 11 13 6 7 1008.8 - -
16/11:15am 28.1 - - - - ENE 11 - 6 - - 1008.4 -
16/11:00am 28.1 - - - - ENE 11 13 6 7 1008.8 - -
16/10:30am 27.9 - - - - NNE 7 9 4 5 1009.3 - -
16/10:15am 27.4 - - - - NNW 11 - 6 - - 1009.4 -
16/10:00am 27.2 - - - - NW 9 13 5 7 1009.9 - -
16/09:30am 26.9 - - - - WNW 24 28 13 15 1010.3 - -
16/09:15am 27.0 - - - - WNW 28 - 15 - - 1010.1 -
16/09:00am 27.5 - - - - WNW 28 32 15 17 1010.4 - -
16/08:30am 28.9 - - - - N 19 20 10 11 1010.2 - -
16/08:15am 28.9 - - - - N 19 - 10 - - 1009.7 -
16/08:00am 28.8 - - - - N 17 19 9 10 1009.7 - -
16/07:30am 28.6 - - - - N 17 20 9 11 1009.3 - -
16/07:15am 28.6 - - - - N 19 - 10 - - 1008.9 -
16/07:00am 28.5 - - - - N 19 20 10 11 1009.1 - -
16/06:30am 28.3 - - - - N 20 24 11 13 1008.9 - -
16/06:15am 28.4 - - - - N 20 - 11 - - 1008.4 -
16/06:00am 28.5 - - - - N 20 24 11 13 1008.6 - -
16/05:30am 28.2 - - - - N 22 26 12 14 1008.0 - -
16/05:15am 27.7 - - - - N 28 - 15 - - 1007.8 -
16/05:00am 28.7 - - - - N 20 26 11 14 1007.9 - -
16/04:30am 28.4 - - - - NNE 19 22 10 12 1007.4 - -
16/04:15am 28.4 - - - - NNE 19 - 10 - - 1006.9 -
16/04:00am 28.6 - - - - NNE 19 22 10 12 1007.2 - -
16/03:30am 28.6 - - - - N 22 24 12 13 1007.0 - -
16/03:15am 28.4 - - - - NE 19 - 10 - - 1006.7 -
16/03:00am 28.5 - - - - NNE 20 24 11 13 1007.0 - -
16/02:30am 28.6 - - - - NE 20 20 11 11 1007.0 - -
16/02:15am 28.6 - - - - NE 20 - 11 - - 1006.9 -
16/02:00am 28.7 - - - - NE 20 24 11 13 1007.3 - -
16/01:30am 28.8 - - - - NE 20 22 11 12 1007.8 - -
16/01:15am 28.8 - - - - NE 19 - 10 - - 1007.7 -
16/01:00am 28.9 - - - - NE 20 22 11 12 1008.1 - -
16/12:30am 28.9 - - - - NE 19 20 10 11 1008.4 - -
16/12:15am 28.7 - - - - NE 19 - 10 - - 1008.1 -
16/12:00am 28.7 - - - - ENE 22 24 12 13 1008.4 - -
 
Date/Time
EST
Temp
°C
App
Temp
°C
Dew
Point
°C
Rel
Hum
%
Delta-T
°C
Wind Press
QNH
hPa
Press
MSL
hPa
Rain since
9am
mm
Dir  Spd
km/h
Gust
km/h
Spd
kts
Gust
kts
15/11:30pm 28.6 - - - - NE 22 26 12 14 1008.6 - -
15/11:15pm 28.4 - - - - NE 19 - 10 - - 1008.5 -
15/11:00pm 28.1 - - - - NNE 17 26 9 14 1008.9 - -
15/10:30pm 28.6 - - - - NNE 22 26 12 14 1009.3 - -
15/10:15pm 28.6 - - - - NNE 22 - 12 - - 1009.0 -
15/10:00pm 28.6 - - - - NNE 22 26 12 14 1009.2 - -
15/09:30pm 28.7 - - - - NE 19 22 10 12 1009.2 - -
15/09:15pm 28.1 - - - - ENE 19 - 10 - - 1008.7 -
15/09:00pm 28.9 - - - - NE 15 19 8 10 1008.9 - -
15/08:30pm 28.8 - - - - NE 17 20 9 11 1008.5 - -
15/08:15pm 28.8 - - - - NE 17 - 9 - - 1008.1 -
15/08:00pm 28.7 - - - - NE 17 20 9 11 1008.1 - -
15/07:30pm 28.7 - - - - NE 19 20 10 11 1007.8 - -
15/07:15pm 28.6 - - - - NNE 13 - 7 - - 1007.6 -
15/07:00pm 28.0 - - - - N 13 17 7 9 1007.8 - -
15/06:30pm 27.4 - - - - NW 20 28 11 15 1007.7 - -
15/06:15pm 28.0 - - - - N 9 - 5 - - 1007.4 -
15/06:00pm 28.2 - - - - CALM 0 6 0 3 1007.5 - -
15/05:30pm 28.2 - - - - ESE 11 15 6 8 1007.3 - -
15/05:15pm 28.1 - - - - ESE 13 - 7 - - 1006.8 -
15/05:00pm 28.2 - - - - E 13 17 7 9 1006.8 - -
15/04:30pm 28.5 - - - - CALM 0 7 0 4 1006.7 - -
15/04:15pm 28.0 - - - - CALM 0 - 0 - - 1006.6 -
15/04:00pm 27.9 - - - - ENE 11 13 6 7 1007.1 - -
15/03:30pm 27.6 - - - - ENE 15 19 8 10 1007.5 - -
15/03:15pm 27.1 - - - - NE 20 - 11 - - 1007.4 -
15/03:00pm 27.6 - - - - NE 22 28 12 15 1007.7 - -
15/02:30pm 28.4 - - - - E 9 13 5 7 1007.9 - -
15/02:15pm 28.5 - - - - NNE 6 - 3 - - 1007.7 -
15/02:00pm 28.8 - - - - CALM 0 0 0 0 1008.1 - -
15/01:30pm 28.6 - - - - NNE 7 9 4 5 1008.1 - -
15/01:15pm 28.5 - - - - N 6 - 3 - - 1008.0 -
15/01:00pm 28.5 - - - - CALM 0 6 0 3 1008.2 - -
15/12:30pm 28.6 - - - - NNE 13 15 7 8 1008.4 - -
15/12:15pm 28.9 - - - - NNE 13 - 7 - - 1008.3 -
15/12:00pm 29.0 - - - - NNE 15 17 8 9 1008.9 - -
15/11:30am 28.9 - - - - NNE 15 15 8 8 1009.1 - -
15/11:15am 29.0 - - - - NE 13 - 7 - - 1008.9 -
15/11:00am 29.1 - - - - NE 13 15 7 8 1009.5 - -
15/10:30am 29.4 - - - - NNE 11 13 6 7 1009.5 - -
15/10:15am 29.2 - - - - CALM 0 - 0 - - 1009.3 -
15/10:00am 29.2 - - - - CALM 0 0 0 0 1009.6 - -
15/09:30am 29.1 - - - - CALM 0 0 0 0 1009.5 - -
15/09:15am 29.2 - - - - CALM 0 - 0 - - 1009.2 -
15/09:00am 29.4 - - - - CALM 0 0 0 0 1009.6 - -
15/08:30am 28.9 - - - - CALM 0 0 0 0 1009.7 - -
15/08:15am 28.9 - - - - CALM 0 - 0 - - 1009.5 -
15/08:00am 28.8 - - - - CALM 0 2 0 1 1009.8 - -
15/07:30am 28.8 - - - - CALM 0 0 0 0 1009.3 - -
15/07:15am 28.8 - - - - CALM 0 - 0 - - 1009.1 -
15/07:00am 28.7 - - - - CALM 0 0 0 0 1009.3 - -
15/06:30am 28.6 - - - - CALM 0 0 0 0 1009.3 - -
15/06:15am 28.5 - - - - CALM 0 - 0 - - 1008.8 -
15/06:00am 28.5 - - - - CALM 0 0 0 0 1008.9 - -
15/05:30am 28.3 - - - - CALM 0 6 0 3 1008.5 - -
15/05:15am 28.1 - - - - S 9 - 5 - - 1008.1 -

Other Formats:

Comma delimited format used in spreadsheet applications
http://www.bom.gov.au/fwo/IDQ60801/IDQ60801.94289.axf

JavaScript Object Notation format (JSON) in row-major order
http://www.bom.gov.au/fwo/IDQ60801/IDQ60801.94289.json